createdAt,value
2023-01-08T06:17:49.421Z,7.63
2023-01-08T06:27:49.438Z,7.83
2023-01-08T06:37:49.420Z,7.88
2023-01-08T06:47:49.517Z,7.90
2023-01-08T06:57:49.426Z,7.89
2023-01-08T07:07:49.471Z,7.97
2023-01-08T07:17:49.431Z,8.00
2023-01-08T07:27:49.393Z,7.95
2023-01-08T07:37:49.568Z,7.99
2023-01-08T07:47:49.752Z,7.98
2023-01-08T07:57:49.636Z,7.95
2023-01-08T08:07:49.727Z,7.91
2023-01-08T08:17:49.517Z,7.98
2023-01-08T08:27:49.482Z,7.99
2023-01-08T08:37:49.646Z,8.00
2023-01-08T08:47:49.818Z,8.02
2023-01-08T08:57:50.046Z,7.99
2023-01-08T09:07:49.926Z,8.03
2023-01-08T09:17:50.133Z,8.11
2023-01-08T09:27:50.146Z,8.26
2023-01-08T09:37:49.955Z,8.39
2023-01-08T09:47:49.988Z,8.63
2023-01-08T09:57:49.987Z,9.22
2023-01-08T10:07:49.917Z,8.98
2023-01-08T10:17:50.038Z,8.86
2023-01-08T10:27:49.960Z,8.84
2023-01-08T10:37:50.100Z,8.87
2023-01-08T10:47:50.045Z,8.92
2023-01-08T10:57:49.877Z,9.03
2023-01-08T11:07:50.227Z,9.22
2023-01-08T11:17:50.075Z,9.32
2023-01-08T11:27:50.078Z,9.43
2023-01-08T11:37:50.115Z,9.60
2023-01-08T11:47:50.065Z,9.60
2023-01-08T11:57:50.044Z,10.00
2023-01-08T12:07:50.190Z,10.29
2023-01-08T12:17:49.980Z,10.43
2023-01-08T12:27:56.927Z,10.66
2023-01-08T12:37:51.936Z,10.60
2023-01-08T12:47:50.076Z,10.87
2023-01-08T12:57:50.154Z,10.99
2023-01-08T13:07:50.184Z,10.57
2023-01-08T13:17:50.061Z,10.48
2023-01-08T13:27:50.249Z,11.27
2023-01-08T13:37:50.078Z,11.20
2023-01-08T13:47:50.022Z,11.16
2023-01-08T13:57:50.107Z,10.86
2023-01-08T14:07:50.007Z,10.48
2023-01-08T14:17:50.027Z,10.00
2023-01-08T14:27:50.107Z,9.94
2023-01-08T14:37:50.200Z,9.71
2023-01-08T14:47:50.324Z,9.21
2023-01-08T14:57:50.334Z,8.73
2023-01-08T15:07:50.496Z,8.88
2023-01-08T15:17:50.451Z,9.11
2023-01-08T15:27:52.621Z,8.88
2023-01-08T15:37:50.421Z,8.71
2023-01-08T15:47:50.544Z,8.44
2023-01-08T15:57:50.525Z,8.04
2023-01-08T16:07:50.360Z,7.65
2023-01-08T16:17:50.522Z,7.36
2023-01-08T16:27:50.469Z,7.92
2023-01-08T16:37:50.542Z,8.06
2023-01-08T16:47:50.539Z,7.85
2023-01-08T16:57:50.555Z,7.71
2023-01-08T17:07:50.634Z,7.74
2023-01-08T17:17:50.587Z,8.06
2023-01-08T17:27:52.205Z,7.77
2023-01-08T17:37:50.667Z,8.02
2023-01-08T17:47:50.486Z,8.03
2023-01-08T17:57:50.482Z,7.78
2023-01-08T18:07:50.579Z,7.53
2023-01-08T18:17:50.574Z,7.54
2023-01-08T18:27:50.682Z,7.25
2023-01-08T18:37:50.630Z,7.27
2023-01-08T18:47:50.806Z,6.99
2023-01-08T18:57:51.077Z,6.65
2023-01-08T19:07:50.982Z,7.30
2023-01-08T19:17:51.287Z,7.43
